createdAt,value
2022-12-19T00:00:53.171Z,54.10
2022-12-19T00:03:23.623Z,54.10
2022-12-19T00:05:53.924Z,53.90
2022-12-19T00:08:30.412Z,53.80
2022-12-19T00:11:04.278Z,53.70
2022-12-19T00:13:40.756Z,53.50
2022-12-19T00:16:19.772Z,53.60
2022-12-19T00:18:51.453Z,53.30
2022-12-19T00:21:28.090Z,53.30
2022-12-19T00:23:58.856Z,53.10
2022-12-19T00:26:34.470Z,53.20
2022-12-19T00:29:13.900Z,52.80
2022-12-19T00:31:44.848Z,52.70
2022-12-19T00:34:15.161Z,52.50
2022-12-19T00:36:45.469Z,52.70
2022-12-19T00:39:15.672Z,52.40
2022-12-19T00:41:45.840Z,52.30
2022-12-19T00:44:19.465Z,52.40
2022-12-19T00:46:52.637Z,52.40
2022-12-19T00:49:23.906Z,52.50
2022-12-19T00:51:54.389Z,52.50
2022-12-19T00:54:24.869Z,52.40
2022-12-19T00:56:55.745Z,52.40
2022-12-19T00:59:26.849Z,52.30
2022-12-19T01:01:57.744Z,52.10
2022-12-19T01:04:35.664Z,52.10
2022-12-19T01:07:10.044Z,52.20
2022-12-19T01:09:40.423Z,52.20
2022-12-19T01:12:31.383Z,52.00
2022-12-19T01:15:04.495Z,52.10
2022-12-19T01:17:43.960Z,52.20
2022-12-19T01:20:29.035Z,52.00
2022-12-19T01:23:01.491Z,51.90
2022-12-19T01:25:31.763Z,51.90
2022-12-19T01:28:03.681Z,51.60
2022-12-19T01:30:34.147Z,51.20
2022-12-19T01:33:05.756Z,51.40
2022-12-19T01:35:35.961Z,51.40
2022-12-19T01:38:08.549Z,51.40
2022-12-19T01:40:39.636Z,51.30
2022-12-19T01:43:16.768Z,51.10
2022-12-19T01:45:48.642Z,50.80
2022-12-19T01:48:39.531Z,50.60
2022-12-19T01:51:22.119Z,50.10
2022-12-19T01:54:05.476Z,49.90
2022-12-19T01:56:40.421Z,49.40
2022-12-19T01:59:21.653Z,49.30
2022-12-19T02:01:59.489Z,48.90
2022-12-19T02:04:32.563Z,48.80
2022-12-19T02:07:15.601Z,48.40
2022-12-19T02:09:50.540Z,47.80
2022-12-19T02:12:47.924Z,48.00
2022-12-19T02:15:47.377Z,48.90
2022-12-19T02:18:43.993Z,48.30
2022-12-19T02:21:23.040Z,48.20
2022-12-19T02:24:17.286Z,48.20
2022-12-19T02:27:00.261Z,48.40
2022-12-19T02:29:42.551Z,47.90
2022-12-19T02:32:20.289Z,47.90
2022-12-19T02:35:21.437Z,48.00
2022-12-19T02:38:06.754Z,47.10
2022-12-19T02:40:55.540Z,47.70
2022-12-19T02:43:27.790Z,47.90
2022-12-19T02:46:00.120Z,48.10
2022-12-19T02:48:31.811Z,48.00
2022-12-19T02:51:02.507Z,48.00
2022-12-19T02:53:32.859Z,48.10
2022-12-19T02:56:24.323Z,48.10
2022-12-19T02:59:26.062Z,48.00
2022-12-19T03:02:00.735Z,48.00
2022-12-19T03:04:46.122Z,48.00
2022-12-19T03:07:39.279Z,47.90
2022-12-19T03:10:09.515Z,47.80
2022-12-19T03:12:47.791Z,47.80
2022-12-19T03:15:19.181Z,47.90
2022-12-19T03:17:50.316Z,47.70
2022-12-19T03:20:38.794Z,47.80
2022-12-19T03:23:09.654Z,47.70
2022-12-19T03:25:40.946Z,47.90
2022-12-19T03:28:15.623Z,47.70
2022-12-19T03:30:47.809Z,47.40
2022-12-19T03:33:21.189Z,47.70
2022-12-19T03:35:53.385Z,47.80
2022-12-19T03:38:33.279Z,47.90
2022-12-19T03:41:06.390Z,47.90
2022-12-19T03:43:38.610Z,48.00
2022-12-19T03:46:17.967Z,48.20
2022-12-19T03:48:53.779Z,48.10
2022-12-19T03:51:46.453Z,48.00
2022-12-19T03:54:27.508Z,47.90
2022-12-19T03:57:19.074Z,48.00
2022-12-19T03:59:54.070Z,48.20
2022-12-19T04:02:25.778Z,48.40
2022-12-19T04:05:04.904Z,48.20
2022-12-19T04:07:36.452Z,48.40
2022-12-19T04:10:13.604Z,48.40
2022-12-19T04:12:56.413Z,48.20
2022-12-19T04:15:47.899Z,48.30
2022-12-19T04:18:20.989Z,48.40
2022-12-19T04:21:03.878Z,48.50
2022-12-19T04:23:42.696Z,48.60
2022-12-19T04:26:15.115Z,48.90
2022-12-19T04:28:55.190Z,49.00
2022-12-19T04:31:26.338Z,49.10
2022-12-19T04:33:56.599Z,49.30
2022-12-19T04:36:28.433Z,49.30
2022-12-19T04:38:59.376Z,49.30
2022-12-19T04:41:29.870Z,49.40
2022-12-19T04:44:00.074Z,49.40
2022-12-19T04:46:30.469Z,49.50
2022-12-19T04:49:00.747Z,49.40
2022-12-19T04:51:31.144Z,49.40
2022-12-19T04:54:01.358Z,49.50
2022-12-19T04:56:31.733Z,49.50
2022-12-19T04:59:02.759Z,49.60
2022-12-19T05:01:33.208Z,49.60
2022-12-19T05:04:04.871Z,49.50
2022-12-19T05:06:35.730Z,49.50
2022-12-19T05:09:06.154Z,49.50
2022-12-19T05:11:36.832Z,49.40
2022-12-19T05:14:07.385Z,49.40
2022-12-19T05:16:38.168Z,49.40
2022-12-19T05:19:08.733Z,49.30
2022-12-19T05:21:39.120Z,49.40
2022-12-19T05:24:10.320Z,49.40
2022-12-19T05:26:40.670Z,49.50
2022-12-19T05:29:11.517Z,49.50
2022-12-19T05:31:41.776Z,49.40
2022-12-19T05:34:12.042Z,49.40
2022-12-19T05:36:42.982Z,49.40
2022-12-19T05:39:13.294Z,49.40
2022-12-19T05:41:47.519Z,49.40
2022-12-19T05:44:19.417Z,49.30
2022-12-19T05:46:49.739Z,49.30
2022-12-19T05:49:20.109Z,49.30
2022-12-19T05:51:50.561Z,49.30
2022-12-19T05:54:20.900Z,49.30
2022-12-19T05:56:51.111Z,49.40
2022-12-19T05:59:21.639Z,49.30
2022-12-19T06:01:51.926Z,49.40
2022-12-19T06:04:22.223Z,49.30
2022-12-19T06:06:52.405Z,49.30
2022-12-19T06:09:22.925Z,49.30
2022-12-19T06:11:54.627Z,49.30
2022-12-19T06:14:25.248Z,49.30
2022-12-19T06:16:55.774Z,49.30
2022-12-19T06:19:26.433Z,49.30
2022-12-19T06:21:56.636Z,49.30
2022-12-19T06:24:28.102Z,49.30
2022-12-19T06:26:58.307Z,49.20
2022-12-19T06:29:28.555Z,49.30
2022-12-19T06:31:58.840Z,49.20
2022-12-19T06:35:02.315Z,49.20
2022-12-19T06:37:19.642Z,49.30
2022-12-19T06:39:49.889Z,49.30
2022-12-19T06:42:26.509Z,49.30
2022-12-19T06:44:58.040Z,49.40
2022-12-19T06:47:28.527Z,49.40
2022-12-19T06:49:58.769Z,49.50
2022-12-19T06:52:29.283Z,49.50
2022-12-19T06:54:59.847Z,49.60
2022-12-19T06:57:30.128Z,49.70
2022-12-19T07:00:00.985Z,49.90
2022-12-19T07:02:33.504Z,49.90
2022-12-19T07:05:09.673Z,50.10
2022-12-19T07:07:40.523Z,50.10
2022-12-19T07:10:11.838Z,50.20
2022-12-19T07:12:42.346Z,50.20
2022-12-19T07:15:13.848Z,50.40
2022-12-19T07:17:44.488Z,50.40
2022-12-19T07:20:15.856Z,50.50
2022-12-19T07:22:47.594Z,50.60
2022-12-19T07:25:19.311Z,50.80
2022-12-19T07:27:50.119Z,51.00
2022-12-19T07:30:20.672Z,51.10
2022-12-19T07:32:51.134Z,51.00
2022-12-19T07:35:21.340Z,51.00
2022-12-19T07:37:52.496Z,51.10
2022-12-19T07:40:22.756Z,51.10
2022-12-19T07:43:12.858Z,51.20
2022-12-19T07:45:57.675Z,51.40
2022-12-19T07:48:28.031Z,51.30
2022-12-19T07:50:58.229Z,51.40
2022-12-19T07:53:29.856Z,51.40
2022-12-19T07:56:00.211Z,51.40
2022-12-19T07:58:30.642Z,51.50
2022-12-19T08:01:02.540Z,51.50
2022-12-19T08:03:32.932Z,51.60
2022-12-19T08:06:05.235Z,51.70
2022-12-19T08:08:37.218Z,51.80
2022-12-19T08:11:15.590Z,51.90
2022-12-19T08:13:47.096Z,51.90
2022-12-19T08:16:18.302Z,52.00
2022-12-19T08:18:49.680Z,52.00
2022-12-19T08:21:20.061Z,52.00
2022-12-19T08:23:50.504Z,52.10
2022-12-19T08:26:34.077Z,52.20
2022-12-19T08:29:09.698Z,52.20
2022-12-19T08:31:39.923Z,52.20
2022-12-19T08:34:10.152Z,52.20
2022-12-19T08:36:41.135Z,52.20
2022-12-19T08:39:11.358Z,52.30
2022-12-19T08:41:41.564Z,52.40
2022-12-19T08:44:14.978Z,52.30
2022-12-19T08:46:49.914Z,52.30
2022-12-19T08:49:21.380Z,52.30
2022-12-19T08:51:51.633Z,52.30
2022-12-19T08:54:21.863Z,52.30
2022-12-19T08:56:52.218Z,52.30
2022-12-19T08:59:30.645Z,52.30
2022-12-19T09:02:05.702Z,52.30
2022-12-19T09:06:01.587Z,52.30
2022-12-19T09:07:27.112Z,52.50
2022-12-19T09:09:57.393Z,52.50
2022-12-19T09:12:27.707Z,52.50
2022-12-19T09:14:57.940Z,52.50
2022-12-19T09:17:28.273Z,52.50
2022-12-19T09:19:58.505Z,52.50
2022-12-19T09:22:29.587Z,52.50
2022-12-19T09:25:00.024Z,52.50
2022-12-19T09:27:30.365Z,52.50
2022-12-19T09:30:00.660Z,52.60
2022-12-19T09:32:31.911Z,52.60
2022-12-19T09:35:02.228Z,52.60
2022-12-19T09:37:33.182Z,52.60
2022-12-19T09:40:03.550Z,52.60
2022-12-19T09:43:17.488Z,52.60
2022-12-19T09:46:19.623Z,52.70
2022-12-19T09:48:55.611Z,52.70
2022-12-19T09:52:04.624Z,52.80
2022-12-19T09:55:00.000Z,52.70
2022-12-19T09:58:06.010Z,52.70
2022-12-19T10:00:45.418Z,52.70
2022-12-19T10:03:47.445Z,53.40
2022-12-19T10:07:18.208Z,52.70
2022-12-19T10:11:30.476Z,52.80
2022-12-19T10:12:43.243Z,52.80
2022-12-19T10:15:16.042Z,52.80
2022-12-19T10:18:15.813Z,52.90
2022-12-19T10:20:59.929Z,52.80
2022-12-19T10:23:51.938Z,53.00
2022-12-19T10:26:47.977Z,52.90
2022-12-19T10:29:58.760Z,52.90
2022-12-19T10:32:28.918Z,52.90
2022-12-19T10:34:59.448Z,53.00
2022-12-19T10:37:42.304Z,53.00
2022-12-19T10:40:45.770Z,53.00
2022-12-19T10:43:30.702Z,53.00
2022-12-19T10:46:14.408Z,53.00
2022-12-19T10:48:44.941Z,52.90
2022-12-19T10:51:27.360Z,53.10
2022-12-19T10:54:00.221Z,52.90
2022-12-19T10:56:37.539Z,53.00
2022-12-19T10:59:19.921Z,53.00
2022-12-19T11:02:00.347Z,53.10
2022-12-19T11:04:38.088Z,53.10
2022-12-19T11:07:20.804Z,53.10
2022-12-19T11:10:30.797Z,53.10
2022-12-19T11:17:50.306Z,53.20
2022-12-19T11:21:31.684Z,53.10
2022-12-19T11:29:15.642Z,53.30
2022-12-19T11:29:26.396Z,53.30
2022-12-19T11:29:40.715Z,53.20
2022-12-19T11:30:44.240Z,53.30
2022-12-19T11:31:26.077Z,53.30
2022-12-19T11:33:56.749Z,53.40
2022-12-19T11:36:50.190Z,53.40
2022-12-19T11:39:32.816Z,53.40
2022-12-19T11:42:14.560Z,53.40
2022-12-19T11:45:03.454Z,53.40
2022-12-19T11:47:48.373Z,53.40
2022-12-19T11:50:32.135Z,53.50
2022-12-19T11:53:29.084Z,53.60
2022-12-19T11:56:16.245Z,53.60
2022-12-19T11:58:57.148Z,53.70
2022-12-19T12:01:36.183Z,53.70
2022-12-19T12:04:24.676Z,53.70
2022-12-19T12:07:00.071Z,53.70
2022-12-19T12:14:55.788Z,53.80
2022-12-19T12:20:16.841Z,53.80
2022-12-19T12:29:05.971Z,53.90
2022-12-19T12:31:10.658Z,53.90
2022-12-19T12:31:18.057Z,53.80
2022-12-19T12:31:48.722Z,53.90
2022-12-19T12:32:03.367Z,54.00
2022-12-19T12:35:54.018Z,54.10
2022-12-19T12:39:08.334Z,54.10
2022-12-19T12:42:05.872Z,54.10
2022-12-19T12:44:46.152Z,54.10
2022-12-19T12:47:30.791Z,54.10
2022-12-19T12:50:05.143Z,54.10
2022-12-19T12:52:49.560Z,54.10
2022-12-19T12:55:59.592Z,54.10
2022-12-19T12:58:54.395Z,54.10
2022-12-19T13:01:42.635Z,54.20
2022-12-19T13:04:15.994Z,54.10
2022-12-19T13:06:55.268Z,54.20
2022-12-19T13:09:30.524Z,54.10
2022-12-19T13:12:41.397Z,54.20
2022-12-19T13:15:31.627Z,54.20
2022-12-19T13:18:32.205Z,54.20
2022-12-19T13:21:05.508Z,54.30
2022-12-19T13:23:40.302Z,54.20
2022-12-19T13:26:24.977Z,54.20
2022-12-19T13:28:55.205Z,54.20
2022-12-19T13:31:25.448Z,54.30
2022-12-19T13:33:56.314Z,54.20
2022-12-19T13:39:51.038Z,54.30
2022-12-19T13:40:12.278Z,54.20
2022-12-19T13:43:32.393Z,54.30
2022-12-19T13:46:23.324Z,54.40
2022-12-19T13:49:06.023Z,54.50
2022-12-19T13:51:57.539Z,54.40
2022-12-19T13:54:32.173Z,54.30
2022-12-19T13:57:09.001Z,54.50
2022-12-19T13:59:45.537Z,54.50
2022-12-19T14:02:45.297Z,54.40
2022-12-19T14:06:17.277Z,54.50
2022-12-19T14:08:27.822Z,54.50
2022-12-19T14:11:41.014Z,54.60
2022-12-19T14:14:46.611Z,54.50
2022-12-19T14:17:22.895Z,54.60
2022-12-19T14:20:28.616Z,54.60
2022-12-19T14:22:45.629Z,54.70
2022-12-19T14:28:15.592Z,54.60
2022-12-19T14:28:29.529Z,54.70
2022-12-19T14:31:04.995Z,54.60
2022-12-19T14:33:58.990Z,54.70
2022-12-19T14:36:34.727Z,54.70
2022-12-19T14:39:25.381Z,54.70
2022-12-19T14:42:48.246Z,54.70
2022-12-19T14:54:02.261Z,54.70
2022-12-19T14:54:05.065Z,54.80
2022-12-19T14:54:18.497Z,54.80
2022-12-19T14:58:16.795Z,54.80
2022-12-19T15:01:07.416Z,54.80
2022-12-19T15:03:37.596Z,54.70
2022-12-19T15:07:05.792Z,54.80
2022-12-19T15:10:58.422Z,54.80
2022-12-19T15:14:55.227Z,54.80
2022-12-19T15:15:38.140Z,54.70
2022-12-19T15:18:20.685Z,54.70
2022-12-19T15:20:51.862Z,54.60
2022-12-19T15:23:23.008Z,54.70
2022-12-19T15:26:04.012Z,54.70
2022-12-19T15:29:01.708Z,54.60
2022-12-19T15:31:46.290Z,54.60
2022-12-19T15:34:50.292Z,54.60
2022-12-19T15:37:21.564Z,54.60
2022-12-19T15:39:51.854Z,54.60
2022-12-19T15:42:27.943Z,54.60
2022-12-19T15:45:01.520Z,54.60
2022-12-19T15:47:35.817Z,54.60
2022-12-19T15:50:19.287Z,54.60
2022-12-19T15:52:50.399Z,54.60
2022-12-19T15:55:22.139Z,54.60
2022-12-19T15:58:05.137Z,54.60
2022-12-19T16:00:38.410Z,54.60
2022-12-19T16:03:23.369Z,54.60
2022-12-19T16:05:55.178Z,54.60
2022-12-19T16:08:29.870Z,54.60
2022-12-19T16:11:02.333Z,54.60
2022-12-19T16:13:38.181Z,54.60
2022-12-19T16:16:15.342Z,54.60
2022-12-19T16:18:47.024Z,54.70
2022-12-19T16:21:33.733Z,54.60
2022-12-19T16:24:04.662Z,54.60
2022-12-19T16:26:39.908Z,54.60
2022-12-19T16:29:32.823Z,55.30
2022-12-19T16:32:03.396Z,54.50
2022-12-19T16:34:33.842Z,54.70
2022-12-19T16:37:04.099Z,54.60
2022-12-19T16:39:34.340Z,54.70
2022-12-19T16:42:06.930Z,54.60
2022-12-19T16:44:37.839Z,54.60
2022-12-19T16:47:16.639Z,54.60
2022-12-19T16:49:47.597Z,54.70
2022-12-19T16:52:17.864Z,54.70
2022-12-19T16:54:48.058Z,54.60
2022-12-19T16:57:23.720Z,54.60
2022-12-19T16:59:54.290Z,54.60
2022-12-19T17:02:40.650Z,54.60
2022-12-19T17:05:21.517Z,54.60
2022-12-19T17:07:52.950Z,54.60
2022-12-19T17:10:26.598Z,54.70
2022-12-19T17:12:58.427Z,54.70
2022-12-19T17:15:35.421Z,54.70
2022-12-19T17:18:35.302Z,54.70
2022-12-19T17:21:05.529Z,54.60
2022-12-19T17:23:35.983Z,54.80
2022-12-19T17:26:06.330Z,54.70
2022-12-19T17:28:36.884Z,54.70
2022-12-19T17:31:10.373Z,54.70
2022-12-19T17:33:42.724Z,54.70
2022-12-19T17:36:21.377Z,54.70
2022-12-19T17:38:54.871Z,54.70
2022-12-19T17:41:25.139Z,54.80
2022-12-19T17:43:55.402Z,54.70
2022-12-19T17:46:27.689Z,54.70
2022-12-19T17:48:57.985Z,54.80
2022-12-19T17:51:28.271Z,54.80
2022-12-19T17:53:58.456Z,54.70
2022-12-19T17:56:28.843Z,54.80
2022-12-19T17:58:59.054Z,54.70
2022-12-19T18:01:29.815Z,54.70
2022-12-19T18:04:00.477Z,54.70
2022-12-19T18:06:30.721Z,54.80
2022-12-19T18:09:04.314Z,54.80
2022-12-19T18:11:41.427Z,54.80
2022-12-19T18:14:13.018Z,54.70
2022-12-19T18:16:43.661Z,54.80
2022-12-19T18:19:26.436Z,54.80
2022-12-19T18:21:56.653Z,54.80
2022-12-19T18:24:28.692Z,54.80
2022-12-19T18:26:59.273Z,54.80
2022-12-19T18:29:29.576Z,54.80
2022-12-19T18:32:00.139Z,54.90
2022-12-19T18:34:37.247Z,54.80
2022-12-19T18:37:07.544Z,54.80
2022-12-19T18:39:37.809Z,54.90
2022-12-19T18:42:24.029Z,54.90
2022-12-19T18:44:54.484Z,54.80
2022-12-19T18:47:27.208Z,55.00
2022-12-19T18:49:57.622Z,54.90
2022-12-19T18:52:27.886Z,54.90
2022-12-19T18:54:58.465Z,54.90
2022-12-19T18:57:28.636Z,54.90
2022-12-19T18:59:59.225Z,55.00
2022-12-19T19:02:30.829Z,54.90
2022-12-19T19:05:01.520Z,54.90
2022-12-19T19:07:31.715Z,55.00
2022-12-19T19:10:02.033Z,55.00
2022-12-19T19:12:32.253Z,54.90
2022-12-19T19:15:02.570Z,55.00
2022-12-19T19:17:33.550Z,55.00
2022-12-19T19:20:05.208Z,54.90
2022-12-19T19:22:35.693Z,54.90
2022-12-19T19:25:06.596Z,55.00
2022-12-19T19:27:36.923Z,55.00
2022-12-19T19:30:08.844Z,55.00
2022-12-19T19:32:42.441Z,55.00
2022-12-19T19:35:13.911Z,55.10
2022-12-19T19:37:46.397Z,55.10
2022-12-19T19:40:17.321Z,55.10
2022-12-19T19:42:47.567Z,55.20
2022-12-19T19:45:18.025Z,55.20
2022-12-19T19:47:48.323Z,55.10
2022-12-19T19:50:18.588Z,55.20
2022-12-19T19:52:48.947Z,55.20
2022-12-19T19:55:19.278Z,55.10
2022-12-19T19:57:49.605Z,55.10
2022-12-19T20:00:20.977Z,55.10
2022-12-19T20:02:52.554Z,55.10
2022-12-19T20:05:23.019Z,55.80
2022-12-19T20:07:53.325Z,55.10
2022-12-19T20:10:23.820Z,55.20
2022-12-19T20:12:54.062Z,55.10
2022-12-19T20:15:24.505Z,55.10
2022-12-19T20:17:55.572Z,55.10
2022-12-19T20:20:26.015Z,55.10
2022-12-19T20:22:56.508Z,55.20
2022-12-19T20:25:26.998Z,55.20
2022-12-19T20:27:57.222Z,55.20
2022-12-19T20:30:27.549Z,55.20
2022-12-19T20:32:57.748Z,55.20
2022-12-19T20:35:28.091Z,55.30
2022-12-19T20:37:58.587Z,55.20
2022-12-19T20:40:30.467Z,55.30
2022-12-19T20:43:00.806Z,55.20
2022-12-19T20:45:31.335Z,55.20
2022-12-19T20:48:01.894Z,55.10
2022-12-19T20:50:32.455Z,55.50
2022-12-19T20:53:03.379Z,55.50
2022-12-19T20:55:33.750Z,55.30
2022-12-19T20:58:04.010Z,55.60
2022-12-19T21:00:34.279Z,55.80
2022-12-19T21:05:58.955Z,55.70
2022-12-19T21:08:32.450Z,55.80
2022-12-19T21:11:21.529Z,55.50
2022-12-19T21:14:10.235Z,56.10
2022-12-19T21:16:40.925Z,55.90
2022-12-19T21:19:11.776Z,55.60
2022-12-19T21:21:42.078Z,56.30
2022-12-19T21:24:12.571Z,56.00
2022-12-19T21:26:42.992Z,56.10
2022-12-19T21:29:13.460Z,56.50
2022-12-19T21:31:43.793Z,56.60
2022-12-19T21:34:14.260Z,56.80
2022-12-19T21:36:44.800Z,57.00
2022-12-19T21:39:15.120Z,57.00
2022-12-19T21:41:45.379Z,58.90
2022-12-19T21:44:16.168Z,58.70
2022-12-19T21:46:46.588Z,58.40
2022-12-19T21:49:16.986Z,58.10
2022-12-19T21:51:47.319Z,57.90
2022-12-19T21:54:17.730Z,57.80
2022-12-19T21:56:47.978Z,57.80
2022-12-19T21:59:19.614Z,57.70
2022-12-19T22:01:50.120Z,57.80
2022-12-19T22:04:23.717Z,57.50
2022-12-19T22:06:54.221Z,57.90
2022-12-19T22:09:25.704Z,58.50
2022-12-19T22:11:56.498Z,57.90
2022-12-19T22:14:26.757Z,57.90
2022-12-19T22:16:57.067Z,57.90
2022-12-19T22:19:27.432Z,58.00
2022-12-19T22:21:57.674Z,58.00
2022-12-19T22:24:27.900Z,57.90
2022-12-19T22:26:58.449Z,58.10
2022-12-19T22:29:28.681Z,57.90
2022-12-19T22:31:59.021Z,57.90
2022-12-19T22:34:29.213Z,58.00
2022-12-19T22:36:59.440Z,57.80
2022-12-19T22:39:30.257Z,57.90
2022-12-19T22:42:00.676Z,57.80
2022-12-19T22:44:30.934Z,57.90
2022-12-19T22:47:01.240Z,57.80
2022-12-19T22:49:31.453Z,57.80
2022-12-19T22:52:02.179Z,57.80
2022-12-19T22:54:32.419Z,57.70
2022-12-19T22:57:02.721Z,57.80
2022-12-19T22:59:33.183Z,57.80
2022-12-19T23:02:04.002Z,57.70
